sensor_id;sensor_type;location;lat;lon;timestamp;pressure;altitude;pressure_sealevel;temperature;humidity
61474;BME280;53694;49.784;30.150;2023-08-12T00:00:41;99734.54;;;18.24;71.94
61474;BME280;53694;49.784;30.150;2023-08-12T00:01:43;99733.80;;;18.16;72.53
61474;BME280;53694;49.784;30.150;2023-08-12T00:02:45;99736.14;;;18.21;72.81
61474;BME280;53694;49.784;30.150;2023-08-12T00:03:46;99730.86;;;18.34;72.56
61474;BME280;53694;49.784;30.150;2023-08-12T00:04:48;99728.72;;;18.53;72.17
61474;BME280;53694;49.784;30.150;2023-08-12T00:05:49;99729.66;;;18.77;71.47
61474;BME280;53694;49.784;30.150;2023-08-12T00:06:51;99727.81;;;19.01;70.71
61474;BME280;53694;49.784;30.150;2023-08-12T00:07:52;99733.89;;;19.22;69.83
61474;BME280;53694;49.784;30.150;2023-08-12T00:08:54;99734.03;;;19.42;69.09
61474;BME280;53694;49.784;30.150;2023-08-12T00:09:55;99730.59;;;19.62;68.35
61474;BME280;53694;49.784;30.150;2023-08-12T00:10:57;99731.66;;;19.71;67.79
61474;BME280;53694;49.784;30.150;2023-08-12T00:11:59;99737.63;;;19.70;67.71
61474;BME280;53694;49.784;30.150;2023-08-12T00:13:00;99725.84;;;19.59;67.99
61474;BME280;53694;49.784;30.150;2023-08-12T00:14:02;99731.25;;;19.42;68.40
61474;BME280;53694;49.784;30.150;2023-08-12T00:15:05;99728.32;;;19.22;69.07
61474;BME280;53694;49.784;30.150;2023-08-12T00:16:07;99723.81;;;19.02;69.81
61474;BME280;53694;49.784;30.150;2023-08-12T00:17:09;99724.06;;;18.80;70.65
61474;BME280;53694;49.784;30.150;2023-08-12T00:18:10;99719.91;;;18.58;71.45
61474;BME280;53694;49.784;30.150;2023-08-12T00:19:12;99719.71;;;18.38;72.32
61474;BME280;53694;49.784;30.150;2023-08-12T00:20:14;99730.97;;;18.23;73.42
61474;BME280;53694;49.784;30.150;2023-08-12T00:21:15;99730.97;;;18.23;73.42
61474;BME280;53694;49.784;30.150;2023-08-12T00:22:17;99727.69;;;18.36;73.53
61474;BME280;53694;49.784;30.150;2023-08-12T00:23:19;99724.14;;;18.73;72.55
61474;BME280;53694;49.784;30.150;2023-08-12T00:24:20;99724.14;;;18.73;72.55
61474;BME280;53694;49.784;30.150;2023-08-12T00:25:22;99725.89;;;18.94;71.89
61474;BME280;53694;49.784;30.150;2023-08-12T00:26:23;99722.05;;;19.15;71.04
61474;BME280;53694;49.784;30.150;2023-08-12T00:27:25;99724.55;;;19.36;70.24
61474;BME280;53694;49.784;30.150;2023-08-12T00:28:26;99725.52;;;19.53;69.61
61474;BME280;53694;49.784;30.150;2023-08-12T00:29:28;99719.73;;;19.71;69.07
61474;BME280;53694;49.784;30.150;2023-08-12T00:30:29;99719.86;;;19.87;68.14
61474;BME280;53694;49.784;30.150;2023-08-12T00:31:31;99724.16;;;19.92;67.43
61474;BME280;53694;49.784;30.150;2023-08-12T00:32:32;99724.16;;;19.92;67.43
61474;BME280;53694;49.784;30.150;2023-08-12T00:33:34;99728.39;;;19.77;67.64
61474;BME280;53694;49.784;30.150;2023-08-12T00:34:36;99720.68;;;19.57;68.21
61474;BME280;53694;49.784;30.150;2023-08-12T00:35:37;99718.63;;;19.34;68.81
61474;BME280;53694;49.784;30.150;2023-08-12T00:36:39;99727.62;;;19.15;69.62
61474;BME280;53694;49.784;30.150;2023-08-12T00:37:40;99716.39;;;18.91;70.32
61474;BME280;53694;49.784;30.150;2023-08-12T00:38:42;99720.57;;;18.69;71.13
61474;BME280;53694;49.784;30.150;2023-08-12T00:39:44;99716.45;;;18.46;71.93
61474;BME280;53694;49.784;30.150;2023-08-12T00:40:45;99718.95;;;18.34;72.75
61474;BME280;53694;49.784;30.150;2023-08-12T00:41:47;99715.02;;;18.31;73.15
61474;BME280;53694;49.784;30.150;2023-08-12T00:42:48;99716.53;;;18.39;73.14
61474;BME280;53694;49.784;30.150;2023-08-12T00:43:50;99719.52;;;18.56;73.04
61474;BME280;53694;49.784;30.150;2023-08-12T00:44:51;99721.31;;;18.77;72.35
61474;BME280;53694;49.784;30.150;2023-08-12T00:45:53;99723.06;;;18.97;71.76
61474;BME280;53694;49.784;30.150;2023-08-12T00:46:55;99722.80;;;19.19;70.92
61474;BME280;53694;49.784;30.150;2023-08-12T00:47:57;99715.02;;;19.37;70.27
61474;BME280;53694;49.784;30.150;2023-08-12T00:48:59;99714.33;;;19.57;69.65
61474;BME280;53694;49.784;30.150;2023-08-12T00:50:01;99713.30;;;19.74;68.76
61474;BME280;53694;49.784;30.150;2023-08-12T00:51:03;99711.49;;;19.87;68.18
61474;BME280;53694;49.784;30.150;2023-08-12T00:52:05;99723.32;;;19.95;67.86
61474;BME280;53694;49.784;30.150;2023-08-12T00:53:07;99716.61;;;19.92;67.75
61474;BME280;53694;49.784;30.150;2023-08-12T00:54:13;99714.41;;;19.80;67.95
61474;BME280;53694;49.784;30.150;2023-08-12T00:55:14;99721.45;;;19.61;68.17
61474;BME280;53694;49.784;30.150;2023-08-12T00:56:17;99720.98;;;19.36;68.79
61474;BME280;53694;49.784;30.150;2023-08-12T00:57:18;99717.38;;;19.08;69.60
61474;BME280;53694;49.784;30.150;2023-08-12T00:58:20;99720.46;;;18.83;70.50
61474;BME280;53694;49.784;30.150;2023-08-12T00:59:22;99723.91;;;18.57;71.52
61474;BME280;53694;49.784;30.150;2023-08-12T01:00:25;99721.38;;;18.32;72.46
61474;BME280;53694;49.784;30.150;2023-08-12T01:01:26;99719.13;;;18.16;73.26
61474;BME280;53694;49.784;30.150;2023-08-12T01:02:28;99725.13;;;18.11;73.83
61474;BME280;53694;49.784;30.150;2023-08-12T01:03:30;99729.81;;;18.17;73.98
61474;BME280;53694;49.784;30.150;2023-08-12T01:04:31;99733.27;;;18.32;73.86
61474;BME280;53694;49.784;30.150;2023-08-12T01:05:33;99724.33;;;18.52;73.52
61474;BME280;53694;49.784;30.150;2023-08-12T01:06:35;99723.34;;;18.72;73.18
61474;BME280;53694;49.784;30.150;2023-08-12T01:07:37;99719.50;;;18.97;72.45
61474;BME280;53694;49.784;30.150;2023-08-12T01:08:39;99723.58;;;19.19;71.38
61474;BME280;53694;49.784;30.150;2023-08-12T01:09:40;99718.59;;;19.38;70.65
61474;BME280;53694;49.784;30.150;2023-08-12T01:10:49;99730.25;;;19.56;69.84
61474;BME280;53694;49.784;30.150;2023-08-12T01:12:01;99726.87;;;19.72;69.26
61474;BME280;53694;49.784;30.150;2023-08-12T01:14:37;99728.06;;;19.98;67.90
61474;BME280;53694;49.784;30.150;2023-08-12T01:15:40;99736.95;;;19.89;67.89
61474;BME280;53694;49.784;30.150;2023-08-12T01:16:46;99735.63;;;19.70;68.14
61474;BME280;53694;49.784;30.150;2023-08-12T01:17:49;99737.52;;;19.50;68.61
61474;BME280;53694;49.784;30.150;2023-08-12T01:18:51;99737.84;;;19.25;69.23
61474;BME280;53694;49.784;30.150;2023-08-12T01:19:54;99738.12;;;19.04;70.09
61474;BME280;53694;49.784;30.150;2023-08-12T01:20:56;99738.37;;;18.82;70.99
61474;BME280;53694;49.784;30.150;2023-08-12T01:22:01;99738.14;;;18.62;71.65
61474;BME280;53694;49.784;30.150;2023-08-12T01:24:11;99730.80;;;18.41;72.49
61474;BME280;53694;49.784;30.150;2023-08-12T01:25:13;99733.88;;;18.51;72.57
61474;BME280;53694;49.784;30.150;2023-08-12T01:26:14;99736.14;;;18.63;72.26
61474;BME280;53694;49.784;30.150;2023-08-12T01:27:16;99739.61;;;18.78;71.92
61474;BME280;53694;49.784;30.150;2023-08-12T01:28:17;99741.02;;;18.93;71.42
61474;BME280;53694;49.784;30.150;2023-08-12T01:29:19;99742.00;;;19.10;71.28
61474;BME280;53694;49.784;30.150;2023-08-12T01:30:21;99744.16;;;19.29;70.99
61474;BME280;53694;49.784;30.150;2023-08-12T01:32:41;99744.42;;;19.69;69.71
61474;BME280;53694;49.784;30.150;2023-08-12T01:33:51;99736.95;;;19.89;68.70
61474;BME280;53694;49.784;30.150;2023-08-12T01:35:03;99746.25;;;20.06;67.68
61474;BME280;53694;49.784;30.150;2023-08-12T01:37:21;99748.00;;;19.96;67.21
61474;BME280;53694;49.784;30.150;2023-08-12T01:38:18;99741.59;;;19.72;67.67
61474;BME280;53694;49.784;30.150;2023-08-12T01:39:22;99747.48;;;19.47;68.44
61474;BME280;53694;49.784;30.150;2023-08-12T01:40:25;99744.28;;;19.18;69.18
61474;BME280;53694;49.784;30.150;2023-08-12T01:41:28;99747.83;;;18.88;70.05
61474;BME280;53694;49.784;30.150;2023-08-12T01:42:32;99744.13;;;18.61;71.10
61474;BME280;53694;49.784;30.150;2023-08-12T01:43:35;99756.27;;;18.36;72.04
61474;BME280;53694;49.784;30.150;2023-08-12T01:44:37;99745.70;;;18.17;72.89
61474;BME280;53694;49.784;30.150;2023-08-12T01:45:38;99746.91;;;18.16;73.97
61474;BME280;53694;49.784;30.150;2023-08-12T01:46:42;99745.27;;;18.22;73.81
61474;BME280;53694;49.784;30.150;2023-08-12T01:47:44;99750.72;;;18.36;74.00
61474;BME280;53694;49.784;30.150;2023-08-12T01:48:46;99743.38;;;18.57;73.45
61474;BME280;53694;49.784;30.150;2023-08-12T01:49:48;99746.78;;;18.75;72.99
61474;BME280;53694;49.784;30.150;2023-08-12T01:50:50;99740.97;;;18.96;72.51
61474;BME280;53694;49.784;30.150;2023-08-12T01:51:51;99745.92;;;19.16;71.51
61474;BME280;53694;49.784;30.150;2023-08-12T01:52:53;99746.09;;;19.32;70.71
61474;BME280;53694;49.784;30.150;2023-08-12T01:53:54;99746.31;;;19.45;70.21
61474;BME280;53694;49.784;30.150;2023-08-12T01:54:56;99747.34;;;19.58;69.98
61474;BME280;53694;49.784;30.150;2023-08-12T01:55:57;99746.00;;;19.70;69.26
61474;BME280;53694;49.784;30.150;2023-08-12T01:57:01;99748.64;;;19.81;68.86
61474;BME280;53694;49.784;30.150;2023-08-12T01:58:03;99752.11;;;19.88;68.47
61474;BME280;53694;49.784;30.150;2023-08-12T01:59:05;99750.16;;;19.85;68.17
61474;BME280;53694;49.784;30.150;2023-08-12T02:00:07;99743.64;;;19.68;68.13
61474;BME280;53694;49.784;30.150;2023-08-12T02:01:09;99747.17;;;19.42;68.51
61474;BME280;53694;49.784;30.150;2023-08-12T02:02:11;99748.75;;;19.12;69.31
61474;BME280;53694;49.784;30.150;2023-08-12T02:03:12;99751.89;;;18.80;70.29
61474;BME280;53694;49.784;30.150;2023-08-12T02:04:14;99749.36;;;18.52;71.37
61474;BME280;53694;49.784;30.150;2023-08-12T02:05:15;99759.31;;;18.04;73.42
61474;BME280;53694;49.784;30.150;2023-08-12T02:06:18;99759.31;;;18.04;73.42
61474;BME280;53694;49.784;30.150;2023-08-12T02:07:20;99752.18;;;18.03;74.73
61474;BME280;53694;49.784;30.150;2023-08-12T02:08:21;99752.18;;;18.03;74.73
61474;BME280;53694;49.784;30.150;2023-08-12T02:09:23;99748.86;;;18.22;74.63
61474;BME280;53694;49.784;30.150;2023-08-12T02:10:25;99757.39;;;18.42;73.77
61474;BME280;53694;49.784;30.150;2023-08-12T02:11:26;99747.27;;;18.63;72.96
61474;BME280;53694;49.784;30.150;2023-08-12T02:12:28;99753.88;;;18.80;72.23
61474;BME280;53694;49.784;30.150;2023-08-12T02:13:30;99746.90;;;18.98;71.59
61474;BME280;53694;49.784;30.150;2023-08-12T02:14:31;99751.53;;;19.12;71.03
61474;BME280;53694;49.784;30.150;2023-08-12T02:15:33;99763.27;;;19.27;70.30
61474;BME280;53694;49.784;30.150;2023-08-12T02:16:35;99757.57;;;19.38;69.65
61474;BME280;53694;49.784;30.150;2023-08-12T02:17:37;99757.05;;;19.46;69.37
61474;BME280;53694;49.784;30.150;2023-08-12T02:18:38;99758.94;;;19.53;69.03
61474;BME280;53694;49.784;30.150;2023-08-12T02:19:40;99752.53;;;19.56;68.81
61474;BME280;53694;49.784;30.150;2023-08-12T02:20:41;99766.19;;;19.47;68.74
61474;BME280;53694;49.784;30.150;2023-08-12T02:21:43;99757.34;;;19.25;69.11
61474;BME280;53694;49.784;30.150;2023-08-12T02:22:45;99761.51;;;18.72;70.70
61474;BME280;53694;49.784;30.150;2023-08-12T02:23:46;99761.51;;;18.72;70.70
61474;BME280;53694;49.784;30.150;2023-08-12T02:24:48;99763.38;;;18.41;71.65
61474;BME280;53694;49.784;30.150;2023-08-12T02:25:49;99762.00;;;18.18;72.69
61474;BME280;53694;49.784;30.150;2023-08-12T02:26:53;99757.72;;;18.07;73.44
61474;BME280;53694;49.784;30.150;2023-08-12T02:27:54;99758.87;;;18.09;73.76
61474;BME280;53694;49.784;30.150;2023-08-12T02:28:56;99760.00;;;18.19;73.80
61474;BME280;53694;49.784;30.150;2023-08-12T02:29:57;99755.88;;;18.34;73.68
61474;BME280;53694;49.784;30.150;2023-08-12T02:30:59;99752.14;;;18.52;73.02
61474;BME280;53694;49.784;30.150;2023-08-12T02:32:01;99753.17;;;18.68;72.54
61474;BME280;53694;49.784;30.150;2023-08-12T02:33:02;99755.81;;;18.86;71.65
61474;BME280;53694;49.784;30.150;2023-08-12T02:34:04;99751.64;;;19.02;71.23
61474;BME280;53694;49.784;30.150;2023-08-12T02:35:07;99753.88;;;19.14;70.38
61474;BME280;53694;49.784;30.150;2023-08-12T02:36:09;99752.16;;;19.23;69.99
61474;BME280;53694;49.784;30.150;2023-08-12T02:37:11;99756.05;;;19.33;69.52
61474;BME280;53694;49.784;30.150;2023-08-12T02:38:12;99748.36;;;19.41;69.23
61474;BME280;53694;49.784;30.150;2023-08-12T02:39:14;99753.53;;;19.42;68.93
61474;BME280;53694;49.784;30.150;2023-08-12T02:40:16;99757.61;;;19.34;69.01
61474;BME280;53694;49.784;30.150;2023-08-12T02:41:17;99753.06;;;19.17;69.25
61474;BME280;53694;49.784;30.150;2023-08-12T02:42:19;99763.27;;;18.93;69.86
61474;BME280;53694;49.784;30.150;2023-08-12T02:43:21;99760.18;;;18.42;71.71
61474;BME280;53694;49.784;30.150;2023-08-12T02:44:22;99760.18;;;18.42;71.71
61474;BME280;53694;49.784;30.150;2023-08-12T02:45:24;99760.45;;;18.14;72.49
61474;BME280;53694;49.784;30.150;2023-08-12T02:46:25;99765.35;;;17.92;73.48
61474;BME280;53694;49.784;30.150;2023-08-12T02:47:27;99763.05;;;17.80;74.28
61474;BME280;53694;49.784;30.150;2023-08-12T02:48:29;99766.64;;;17.80;74.65
61474;BME280;53694;49.784;30.150;2023-08-12T02:49:30;99775.31;;;17.89;74.61
61474;BME280;53694;49.784;30.150;2023-08-12T02:50:32;99769.64;;;18.04;74.42
61474;BME280;53694;49.784;30.150;2023-08-12T02:51:34;99758.63;;;18.20;73.94
61474;BME280;53694;49.784;30.150;2023-08-12T02:52:35;99761.63;;;18.58;72.92
61474;BME280;53694;49.784;30.150;2023-08-12T02:53:37;99761.63;;;18.58;72.92
61474;BME280;53694;49.784;30.150;2023-08-12T02:54:38;99763.89;;;18.73;71.95
61474;BME280;53694;49.784;30.150;2023-08-12T02:55:40;99764.52;;;18.88;71.44
61474;BME280;53694;49.784;30.150;2023-08-12T02:56:42;99754.81;;;19.04;71.09
61474;BME280;53694;49.784;30.150;2023-08-12T02:57:43;99761.77;;;19.19;70.28
61474;BME280;53694;49.784;30.150;2023-08-12T02:58:45;99760.86;;;19.29;69.64
61474;BME280;53694;49.784;30.150;2023-08-12T02:59:46;99755.19;;;19.36;69.04
61474;BME280;53694;49.784;30.150;2023-08-12T03:00:48;99762.35;;;19.37;68.68
61474;BME280;53694;49.784;30.150;2023-08-12T03:01:50;99758.44;;;19.31;68.51
61474;BME280;53694;49.784;30.150;2023-08-12T03:02:51;99761.81;;;19.15;68.93
61474;BME280;53694;49.784;30.150;2023-08-12T03:03:53;99764.52;;;18.88;69.65
61474;BME280;53694;49.784;30.150;2023-08-12T03:04:54;99755.68;;;18.56;70.70
61474;BME280;53694;49.784;30.150;2023-08-12T03:05:56;99772.25;;;18.25;71.79
61474;BME280;53694;49.784;30.150;2023-08-12T03:06:57;99764.56;;;17.91;73.00
61474;BME280;53694;49.784;30.150;2023-08-12T03:07:59;99760.81;;;17.53;75.44
61474;BME280;53694;49.784;30.150;2023-08-12T03:09:00;99756.87;;;17.51;75.31
61474;BME280;53694;49.784;30.150;2023-08-12T03:10:02;99756.87;;;17.51;75.31
61474;BME280;53694;49.784;30.150;2023-08-12T03:11:04;99762.36;;;17.58;75.47
61474;BME280;53694;49.784;30.150;2023-08-12T03:12:06;99763.10;;;17.69;75.30
61474;BME280;53694;49.784;30.150;2023-08-12T03:13:08;99757.11;;;17.81;74.93
61474;BME280;53694;49.784;30.150;2023-08-12T03:14:09;99754.23;;;17.92;74.38
61474;BME280;53694;49.784;30.150;2023-08-12T03:15:11;99761.70;;;18.06;74.08
61474;BME280;53694;49.784;30.150;2023-08-12T03:16:14;99765.16;;;18.17;73.65
61474;BME280;53694;49.784;30.150;2023-08-12T03:17:15;99766.30;;;18.27;73.26
61474;BME280;53694;49.784;30.150;2023-08-12T03:18:18;99761.84;;;18.36;72.79
61474;BME280;53694;49.784;30.150;2023-08-12T03:19:20;99762.78;;;18.60;72.10
61474;BME280;53694;49.784;30.150;2023-08-12T03:20:22;99762.78;;;18.60;72.10
61474;BME280;53694;49.784;30.150;2023-08-12T03:21:23;99757.95;;;18.68;71.52
61474;BME280;53694;49.784;30.150;2023-08-12T03:22:27;99761.90;;;18.74;71.12
61474;BME280;53694;49.784;30.150;2023-08-12T03:23:29;99757.87;;;18.79;70.91
61474;BME280;53694;49.784;30.150;2023-08-12T03:24:30;99764.98;;;18.83;70.59
61474;BME280;53694;49.784;30.150;2023-08-12T03:25:32;99760.16;;;18.87;70.35
61474;BME280;53694;49.784;30.150;2023-08-12T03:26:34;99750.61;;;18.88;70.34
61474;BME280;53694;49.784;30.150;2023-08-12T03:27:35;99757.34;;;18.91;70.10
61474;BME280;53694;49.784;30.150;2023-08-12T03:28:37;99759.73;;;18.89;69.82
61474;BME280;53694;49.784;30.150;2023-08-12T03:29:38;99764.52;;;18.88;69.99
61474;BME280;53694;49.784;30.150;2023-08-12T03:30:40;99760.16;;;18.87;69.98
61474;BME280;53694;49.784;30.150;2023-08-12T03:31:41;99756.63;;;18.83;70.10
61474;BME280;53694;49.784;30.150;2023-08-12T03:32:43;99750.39;;;18.68;70.33
61474;BME280;53694;49.784;30.150;2023-08-12T03:33:46;99759.36;;;18.45;70.96
61474;BME280;53694;49.784;30.150;2023-08-12T03:34:48;99763.09;;;18.28;71.74
61474;BME280;53694;49.784;30.150;2023-08-12T03:35:49;99762.02;;;18.15;72.35
61474;BME280;53694;49.784;30.150;2023-08-12T03:36:51;99764.82;;;18.11;72.65
61474;BME280;53694;49.784;30.150;2023-08-12T03:37:53;99768.39;;;18.12;72.76
61474;BME280;53694;49.784;30.150;2023-08-12T03:38:54;99770.72;;;18.17;72.58
61474;BME280;53694;49.784;30.150;2023-08-12T03:39:56;99765.12;;;18.24;72.56
61474;BME280;53694;49.784;30.150;2023-08-12T03:40:57;99767.78;;;18.35;72.47
61474;BME280;53694;49.784;30.150;2023-08-12T03:41:59;99764.53;;;18.43;72.04
61474;BME280;53694;49.784;30.150;2023-08-12T03:43:00;99769.58;;;18.56;71.72
61474;BME280;53694;49.784;30.150;2023-08-12T03:44:02;99777.87;;;18.63;71.29
61474;BME280;53694;49.784;30.150;2023-08-12T03:45:04;99763.14;;;18.69;71.08
61474;BME280;53694;49.784;30.150;2023-08-12T03:46:07;99769.40;;;18.77;70.92
61474;BME280;53694;49.784;30.150;2023-08-12T03:47:09;99770.55;;;18.83;70.62
61474;BME280;53694;49.784;30.150;2023-08-12T03:48:11;99765.30;;;18.89;70.26
61474;BME280;53694;49.784;30.150;2023-08-12T03:49:12;99762.91;;;18.91;70.13
61474;BME280;53694;49.784;30.150;2023-08-12T03:50:14;99762.06;;;18.94;70.19
61474;BME280;53694;49.784;30.150;2023-08-12T03:51:16;99751.68;;;18.98;69.93
61474;BME280;53694;49.784;30.150;2023-08-12T03:52:17;99757.20;;;19.02;69.84
61474;BME280;53694;49.784;30.150;2023-08-12T03:53:19;99757.17;;;19.05;69.75
61474;BME280;53694;49.784;30.150;2023-08-12T03:54:21;99758.78;;;19.03;69.67
61474;BME280;53694;49.784;30.150;2023-08-12T03:55:22;99758.95;;;18.88;69.92
61474;BME280;53694;49.784;30.150;2023-08-12T03:56:24;99767.14;;;18.65;70.51
61474;BME280;53694;49.784;30.150;2023-08-12T03:57:26;99762.59;;;18.40;71.39
61474;BME280;53694;49.784;30.150;2023-08-12T03:58:27;99765.24;;;18.10;72.49
61474;BME280;53694;49.784;30.150;2023-08-12T03:59:29;99761.44;;;17.86;73.57
61474;BME280;53694;49.784;30.150;2023-08-12T04:00:31;99763.48;;;17.74;74.43
61474;BME280;53694;49.784;30.150;2023-08-12T04:01:32;99763.88;;;17.73;74.85
61474;BME280;53694;49.784;30.150;2023-08-12T04:02:34;99763.09;;;17.76;74.90
61474;BME280;53694;49.784;30.150;2023-08-12T04:03:36;99762.64;;;17.85;74.88
61474;BME280;53694;49.784;30.150;2023-08-12T04:04:37;99766.39;;;18.12;74.35
61474;BME280;53694;49.784;30.150;2023-08-12T04:05:47;99761.52;;;18.27;73.73
61474;BME280;53694;49.784;30.150;2023-08-12T04:06:49;99761.52;;;18.27;73.73
61474;BME280;53694;49.784;30.150;2023-08-12T04:07:51;99760.60;;;18.41;73.10
61474;BME280;53694;49.784;30.150;2023-08-12T04:08:52;99772.00;;;18.54;72.74
61474;BME280;53694;49.784;30.150;2023-08-12T04:09:53;99764.36;;;18.65;72.26
61474;BME280;53694;49.784;30.150;2023-08-12T04:10:55;99763.08;;;18.73;71.94
61474;BME280;53694;49.784;30.150;2023-08-12T04:11:56;99762.20;;;18.83;71.67
61474;BME280;53694;49.784;30.150;2023-08-12T04:12:58;99768.41;;;18.94;71.32
61474;BME280;53694;49.784;30.150;2023-08-12T04:13:59;99760.38;;;19.04;70.90
61474;BME280;53694;49.784;30.150;2023-08-12T04:15:01;99764.66;;;19.12;70.47
61474;BME280;53694;49.784;30.150;2023-08-12T04:16:03;99761.41;;;19.17;70.17
61474;BME280;53694;49.784;30.150;2023-08-12T04:17:05;99773.26;;;19.25;70.01
61474;BME280;53694;49.784;30.150;2023-08-12T04:18:06;99770.00;;;19.30;69.51
61474;BME280;53694;49.784;30.150;2023-08-12T04:19:08;99770.36;;;19.32;69.20
61474;BME280;53694;49.784;30.150;2023-08-12T04:20:09;99771.14;;;19.32;69.20
61474;BME280;53694;49.784;30.150;2023-08-12T04:21:11;99768.00;;;19.30;69.16
61474;BME280;53694;49.784;30.150;2023-08-12T04:22:12;99764.20;;;19.17;69.41
61474;BME280;53694;49.784;30.150;2023-08-12T04:23:14;99771.20;;;18.94;70.01
61474;BME280;53694;49.784;30.150;2023-08-12T04:24:16;99772.70;;;18.65;70.97
61474;BME280;53694;49.784;30.150;2023-08-12T04:25:18;99771.75;;;18.37;72.09
61474;BME280;53694;49.784;30.150;2023-08-12T04:26:20;99774.34;;;18.14;73.22
61474;BME280;53694;49.784;30.150;2023-08-12T04:27:21;99770.84;;;18.03;74.06
61474;BME280;53694;49.784;30.150;2023-08-12T04:28:23;99770.84;;;18.03;74.49
61474;BME280;53694;49.784;30.150;2023-08-12T04:29:24;99771.97;;;18.09;74.32
61474;BME280;53694;49.784;30.150;2023-08-12T04:30:26;99773.90;;;18.19;74.26
61474;BME280;53694;49.784;30.150;2023-08-12T04:31:27;99765.85;;;18.32;73.99
61474;BME280;53694;49.784;30.150;2023-08-12T04:32:29;99768.89;;;18.48;73.34
61474;BME280;53694;49.784;30.150;2023-08-12T04:33:30;99770.73;;;18.62;72.69
61474;BME280;53694;49.784;30.150;2023-08-12T04:34:32;99771.84;;;18.71;71.96
61474;BME280;53694;49.784;30.150;2023-08-12T04:35:33;99767.01;;;18.79;71.87
61474;BME280;53694;49.784;30.150;2023-08-12T04:36:35;99765.27;;;18.92;71.82
61474;BME280;53694;49.784;30.150;2023-08-12T04:37:37;99760.38;;;19.04;71.05
61474;BME280;53694;49.784;30.150;2023-08-12T04:38:38;99761.88;;;19.12;70.72
61474;BME280;53694;49.784;30.150;2023-08-12T04:39:40;99766.09;;;19.23;70.53
61474;BME280;53694;49.784;30.150;2023-08-12T04:40:42;99775.53;;;19.33;70.09
61474;BME280;53694;49.784;30.150;2023-08-12T04:41:43;99767.81;;;19.44;69.85
61474;BME280;53694;49.784;30.150;2023-08-12T04:42:45;99769.34;;;19.49;68.82
61474;BME280;53694;49.784;30.150;2023-08-12T04:43:46;99773.72;;;19.50;68.85
61474;BME280;53694;49.784;30.150;2023-08-12T04:44:48;99766.98;;;19.47;68.73
61474;BME280;53694;49.784;30.150;2023-08-12T04:45:49;99768.19;;;19.16;69.56
61474;BME280;53694;49.784;30.150;2023-08-12T04:46:51;99768.19;;;19.16;69.56
61474;BME280;53694;49.784;30.150;2023-08-12T04:47:52;99783.44;;;18.63;71.17
61474;BME280;53694;49.784;30.150;2023-08-12T04:48:54;99783.44;;;18.63;71.17
61474;BME280;53694;49.784;30.150;2023-08-12T04:49:55;99773.77;;;18.33;72.45
61474;BME280;53694;49.784;30.150;2023-08-12T04:50:58;99779.50;;;18.12;73.68
61474;BME280;53694;49.784;30.150;2023-08-12T04:51:59;99777.97;;;18.04;74.52
61474;BME280;53694;49.784;30.150;2023-08-12T04:53:01;99771.61;;;18.07;74.83
61474;BME280;53694;49.784;30.150;2023-08-12T04:54:03;99777.05;;;18.21;74.76
61474;BME280;53694;49.784;30.150;2023-08-12T04:55:05;99778.91;;;18.35;74.45
61474;BME280;53694;49.784;30.150;2023-08-12T04:56:07;99780.77;;;18.52;73.97
61474;BME280;53694;49.784;30.150;2023-08-12T04:57:08;99775.84;;;18.70;73.55
61474;BME280;53694;49.784;30.150;2023-08-12T04:58:10;99770.05;;;18.92;72.95
61474;BME280;53694;49.784;30.150;2023-08-12T04:59:11;99773.02;;;19.12;72.04
61474;BME280;53694;49.784;30.150;2023-08-12T05:00:13;99781.92;;;19.30;71.48
61474;BME280;53694;49.784;30.150;2023-08-12T05:01:15;99783.34;;;19.45;70.51
61474;BME280;53694;49.784;30.150;2023-08-12T05:02:17;99784.39;;;19.55;69.96
61474;BME280;53694;49.784;30.150;2023-08-12T05:03:18;99781.95;;;19.61;69.40
61474;BME280;53694;49.784;30.150;2023-08-12T05:04:20;99788.22;;;19.68;69.55
61474;BME280;53694;49.784;30.150;2023-08-12T05:05:22;99776.23;;;19.71;69.07
61474;BME280;53694;49.784;30.150;2023-08-12T05:06:23;99774.77;;;19.63;69.24
61474;BME280;53694;49.784;30.150;2023-08-12T05:07:25;99772.19;;;19.45;69.36
61474;BME280;53694;49.784;30.150;2023-08-12T05:08:26;99763.73;;;19.22;70.19
61474;BME280;53694;49.784;30.150;2023-08-12T05:09:28;99771.06;;;18.71;71.98
61474;BME280;53694;49.784;30.150;2023-08-12T05:10:29;99771.06;;;18.71;71.98
61474;BME280;53694;49.784;30.150;2023-08-12T05:11:31;99772.00;;;18.54;72.73
61474;BME280;53694;49.784;30.150;2023-08-12T05:12:33;99766.89;;;18.48;73.48
61474;BME280;53694;49.784;30.150;2023-08-12T05:13:34;99772.00;;;18.54;73.46
61474;BME280;53694;49.784;30.150;2023-08-12T05:14:37;99765.53;;;18.64;73.52
61474;BME280;53694;49.784;30.150;2023-08-12T05:15:38;99768.97;;;18.82;73.02
61474;BME280;53694;49.784;30.150;2023-08-12T05:16:40;99767.38;;;19.15;71.17
61474;BME280;53694;49.784;30.150;2023-08-12T05:17:41;99767.38;;;19.15;71.17
61474;BME280;53694;49.784;30.150;2023-08-12T05:18:43;99768.83;;;19.27;70.71
61474;BME280;53694;49.784;30.150;2023-08-12T05:19:44;99768.28;;;19.39;70.27
61474;BME280;53694;49.784;30.150;2023-08-12T05:20:46;99773.25;;;19.55;70.09
61474;BME280;53694;49.784;30.150;2023-08-12T05:21:47;99766.72;;;19.69;69.78
61474;BME280;53694;49.784;30.150;2023-08-12T05:22:49;99774.50;;;19.81;68.76
61474;BME280;53694;49.784;30.150;2023-08-12T05:23:50;99769.56;;;19.92;68.47
61474;BME280;53694;49.784;30.150;2023-08-12T05:24:52;99771.48;;;19.95;68.47
61474;BME280;53694;49.784;30.150;2023-08-12T05:25:53;99777.59;;;19.87;68.26
61474;BME280;53694;49.784;30.150;2023-08-12T05:26:55;99806.94;;;19.68;68.57
61474;BME280;53694;49.784;30.150;2023-08-12T05:27:57;99769.02;;;19.43;69.96
61474;BME280;53694;49.784;30.150;2023-08-12T05:28:58;99770.13;;;19.19;70.10